Terminal Aerodrome Forecast
Issued by NWS

Home | Current Version | Previous Version | Text Only | Print | Product List | Glossary On
Versions: 1 2 3 4 5 6 7 8 9 10 11 12 13 14 15 16 17
000
FTUS41 KPBZ 170540
TAFFKL
TAF
KFKL 170540Z 1706/1806 VRB03KT P6SM SCT250
      TEMPO 1709/1712 2SM BR
     FM171200 14005KT P6SM BKN100
     FM171800 18008KT P6SM VCSH BKN050
     FM172100 18005KT P6SM -SHRA VCTS BKN050CB
      AMD LTD TO CLD VIS AND WIND=

USA.gov is the U.S. government's official web portal to all federal, state and local government web resources and services.